AAL542 YSSY-YMML
Flight info
| Callsign | AAL542 |
|---|---|
| Flight time | 1h 0m |
| Altitude | 34000 |
| Route | WOL H65 LEECE Q29 ML |
| Aircraft | B77W/H-SDE1E2E3FGHIJ2J3J4J5M1RWXY/LB1D1 |
Departure
| Time | 2026-04-30 07:35 |
|---|---|
| Airport | Sydney Kingsford Smith International Airport (YSSY) |
Arrival
| Time | 2026-04-30 08:35 |
|---|---|
| Airport | Melbourne Airport (YMML) |
| Time | Latitude | Longitude | Altitude | Speed | Heading |
|---|---|---|---|---|---|
| 2026-04-30 06:41 | -33.94058 | 151.16390 | 31 ft | 0 kts | 43° |
| 2026-04-30 07:13 | -33.94065 | 151.16383 | 32 ft | 1 kts | 43° |
| 2026-04-30 07:14 | -33.94069 | 151.16378 | 32 ft | 1 kts | 54° |
| 2026-04-30 07:14 | -33.94073 | 151.16373 | 32 ft | 1 kts | 77° |
| 2026-04-30 07:14 | -33.94074 | 151.16366 | 32 ft | 1 kts | 94° |
| 2026-04-30 07:14 | -33.94074 | 151.16356 | 32 ft | 1 kts | 109° |
| 2026-04-30 07:15 | -33.94070 | 151.16347 | 32 ft | 1 kts | 126° |
| 2026-04-30 07:15 | -33.94060 | 151.16331 | 32 ft | 3 kts | 137° |
| 2026-04-30 07:15 | -33.94050 | 151.16320 | 31 ft | 0 kts | 137° |
| 2026-04-30 07:18 | -33.94051 | 151.16322 | 31 ft | 1 kts | 139° |
| 2026-04-30 07:18 | -33.94091 | 151.16338 | 31 ft | 9 kts | 164° |
| 2026-04-30 07:19 | -33.94150 | 151.16364 | 29 ft | 9 kts | 141° |
| 2026-04-30 07:19 | -33.94156 | 151.16444 | 32 ft | 11 kts | 72° |
| 2026-04-30 07:19 | -33.94130 | 151.16537 | 27 ft | 13 kts | 72° |
| 2026-04-30 07:19 | -33.94107 | 151.16642 | 27 ft | 13 kts | 75° |
| 2026-04-30 07:20 | -33.94080 | 151.16745 | 29 ft | 13 kts | 74° |
| 2026-04-30 07:20 | -33.94058 | 151.16850 | 26 ft | 13 kts | 75° |
| 2026-04-30 07:20 | -33.94035 | 151.16954 | 29 ft | 13 kts | 74° |
| 2026-04-30 07:20 | -33.94010 | 151.17058 | 30 ft | 13 kts | 74° |
| 2026-04-30 07:21 | -33.93985 | 151.17167 | 28 ft | 14 kts | 79° |
| 2026-04-30 07:21 | -33.94038 | 151.17243 | 30 ft | 14 kts | 169° |
| 2026-04-30 07:21 | -33.94144 | 151.17271 | 27 ft | 18 kts | 166° |
| 2026-04-30 07:21 | -33.94268 | 151.17306 | 28 ft | 18 kts | 168° |
| 2026-04-30 07:22 | -33.94519 | 151.17367 | 31 ft | 18 kts | 168° |
| 2026-04-30 07:22 | -33.94644 | 151.17400 | 31 ft | 18 kts | 167° |
| 2026-04-30 07:22 | -33.94771 | 151.17433 | 28 ft | 19 kts | 168° |
| 2026-04-30 07:23 | -33.94910 | 151.17468 | 27 ft | 21 kts | 168° |
| 2026-04-30 07:23 | -33.95055 | 151.17505 | 28 ft | 21 kts | 168° |
| 2026-04-30 07:23 | -33.95189 | 151.17540 | 26 ft | 17 kts | 168° |
| 2026-04-30 07:23 | -33.95264 | 151.17591 | 28 ft | 11 kts | 99° |
| 2026-04-30 07:24 | -33.95262 | 151.17610 | 28 ft | 0 kts | 81° |
| 2026-04-30 07:25 | -33.95262 | 151.17611 | 29 ft | 3 kts | 81° |
| 2026-04-30 07:25 | -33.95250 | 151.17694 | 27 ft | 11 kts | 80° |
| 2026-04-30 07:25 | -33.95232 | 151.17806 | 28 ft | 15 kts | 77° |
| 2026-04-30 07:26 | -33.95208 | 151.17931 | 29 ft | 15 kts | 76° |
| 2026-04-30 07:26 | -33.95184 | 151.18055 | 31 ft | 15 kts | 76° |
| 2026-04-30 07:26 | -33.95163 | 151.18181 | 31 ft | 15 kts | 80° |
| 2026-04-30 07:26 | -33.95141 | 151.18306 | 31 ft | 15 kts | 78° |
| 2026-04-30 07:27 | -33.95122 | 151.18411 | 31 ft | 6 kts | 77° |
| 2026-04-30 07:27 | -33.95119 | 151.18430 | 31 ft | 0 kts | 77° |
| 2026-04-30 07:28 | -33.95116 | 151.18446 | 31 ft | 9 kts | 77° |
| 2026-04-30 07:28 | -33.95124 | 151.18539 | 31 ft | 12 kts | 120° |
| 2026-04-30 07:28 | -33.95187 | 151.18624 | 31 ft | 16 kts | 135° |
| 2026-04-30 07:28 | -33.95283 | 151.18703 | 31 ft | 17 kts | 155° |
| 2026-04-30 07:29 | -33.95404 | 151.18748 | 28 ft | 19 kts | 165° |
| 2026-04-30 07:29 | -33.95536 | 151.18786 | 28 ft | 20 kts | 170° |
| 2026-04-30 07:29 | -33.95673 | 151.18815 | 30 ft | 20 kts | 169° |
| 2026-04-30 07:29 | -33.95805 | 151.18850 | 31 ft | 20 kts | 167° |
| 2026-04-30 07:30 | -33.96073 | 151.18923 | 31 ft | 20 kts | 167° |
| 2026-04-30 07:30 | -33.96207 | 151.18955 | 31 ft | 20 kts | 168° |
| 2026-04-30 07:30 | -33.96346 | 151.18991 | 30 ft | 21 kts | 168° |
| 2026-04-30 07:31 | -33.96467 | 151.19021 | 28 ft | 18 kts | 168° |
| 2026-04-30 07:31 | -33.96590 | 151.19052 | 27 ft | 18 kts | 168° |
| 2026-04-30 07:31 | -33.96714 | 151.19077 | 26 ft | 18 kts | 181° |
| 2026-04-30 07:31 | -33.96839 | 151.19076 | 24 ft | 18 kts | 171° |
| 2026-04-30 07:32 | -33.96963 | 151.19106 | 27 ft | 18 kts | 167° |
| 2026-04-30 07:32 | -33.97084 | 151.19139 | 28 ft | 14 kts | 163° |
| 2026-04-30 07:32 | -33.97125 | 151.19236 | 30 ft | 14 kts | 83° |
| 2026-04-30 07:32 | -33.97122 | 151.19248 | 31 ft | 0 kts | 76° |
| 2026-04-30 07:33 | -33.97108 | 151.19320 | 30 ft | 10 kts | 76° |
| 2026-04-30 07:34 | -33.97058 | 151.19369 | 30 ft | 10 kts | 359° |
| 2026-04-30 07:34 | -33.96925 | 151.19340 | 25 ft | 47 kts | 349° |
| 2026-04-30 07:34 | -33.96324 | 151.19184 | 28 ft | 126 kts | 348° |
| 2026-04-30 07:34 | -33.95246 | 151.18899 | 108 ft | 181 kts | 347° |
| 2026-04-30 07:35 | -33.93988 | 151.18760 | 825 ft | 185 kts | 12° |
| 2026-04-30 07:35 | -33.92853 | 151.19485 | 1572 ft | 194 kts | 40° |
| 2026-04-30 07:35 | -33.92013 | 151.20893 | 1869 ft | 226 kts | 68° |
| 2026-04-30 07:35 | -33.91905 | 151.22895 | 2169 ft | 257 kts | 105° |
| 2026-04-30 07:36 | -33.92662 | 151.24879 | 2865 ft | 266 kts | 116° |
| 2026-04-30 07:36 | -33.93500 | 151.26886 | 3708 ft | 267 kts | 109° |
| 2026-04-30 07:36 | -33.93789 | 151.29091 | 4261 ft | 269 kts | 86° |
| 2026-04-30 07:36 | -33.93683 | 151.31374 | 4342 ft | 275 kts | 85° |
| 2026-04-30 07:37 | -33.93601 | 151.33671 | 4361 ft | 274 kts | 85° |
| 2026-04-30 07:37 | -33.93530 | 151.35965 | 4668 ft | 274 kts | 85° |
| 2026-04-30 07:37 | -33.93460 | 151.38268 | 5635 ft | 276 kts | 85° |
| 2026-04-30 07:37 | -33.93392 | 151.40577 | 6617 ft | 277 kts | 85° |
| 2026-04-30 07:38 | -33.93323 | 151.42909 | 7511 ft | 280 kts | 85° |
| 2026-04-30 07:38 | -33.93252 | 151.45269 | 8390 ft | 285 kts | 84° |
| 2026-04-30 07:38 | -33.93180 | 151.47654 | 9146 ft | 292 kts | 85° |
| 2026-04-30 07:38 | -33.93310 | 151.50121 | 9723 ft | 305 kts | 104° |
| 2026-04-30 07:39 | -33.94403 | 151.52430 | 9940 ft | 335 kts | 135° |
| 2026-04-30 07:39 | -33.96442 | 151.53958 | 10177 ft | 360 kts | 164° |
| 2026-04-30 07:39 | -33.98984 | 151.54234 | 10506 ft | 376 kts | 192° |
| 2026-04-30 07:39 | -34.01449 | 151.53198 | 11325 ft | 378 kts | 212° |
| 2026-04-30 07:40 | -34.03600 | 151.51396 | 12447 ft | 375 kts | 224° |
| 2026-04-30 07:40 | -34.05423 | 151.49182 | 13692 ft | 371 kts | 230° |
| 2026-04-30 07:40 | -34.07121 | 151.46842 | 14854 ft | 371 kts | 231° |
| 2026-04-30 07:40 | -34.08231 | 151.45258 | 15555 ft | 374 kts | 230° |
| 2026-04-30 07:41 | -34.09916 | 151.42838 | 16503 ft | 379 kts | 229° |
| 2026-04-30 07:41 | -34.11634 | 151.40390 | 17381 ft | 386 kts | 228° |
| 2026-04-30 07:41 | -34.13399 | 151.37904 | 18215 ft | 393 kts | 227° |
| 2026-04-30 07:41 | -34.15205 | 151.35384 | 18993 ft | 400 kts | 226° |
| 2026-04-30 07:42 | -34.17059 | 151.32818 | 19709 ft | 409 kts | 225° |
| 2026-04-30 07:42 | -34.18951 | 151.30208 | 20376 ft | 417 kts | 225° |
| 2026-04-30 07:42 | -34.20886 | 151.27543 | 21020 ft | 426 kts | 225° |
| 2026-04-30 07:42 | -34.22861 | 151.24824 | 21628 ft | 435 kts | 224° |
| 2026-04-30 07:43 | -34.24882 | 151.22039 | 22196 ft | 444 kts | 224° |
| 2026-04-30 07:43 | -34.26938 | 151.19204 | 22769 ft | 453 kts | 224° |
| 2026-04-30 07:43 | -34.29038 | 151.16304 | 23308 ft | 462 kts | 225° |
| 2026-04-30 07:43 | -34.31171 | 151.13354 | 23835 ft | 470 kts | 225° |
| 2026-04-30 07:44 | -34.33346 | 151.10344 | 24347 ft | 478 kts | 225° |
| 2026-04-30 07:44 | -34.35553 | 151.07285 | 24847 ft | 486 kts | 225° |
| 2026-04-30 07:44 | -34.37791 | 151.04181 | 25338 ft | 493 kts | 226° |
| 2026-04-30 07:44 | -34.40063 | 151.01025 | 25837 ft | 500 kts | 226° |
| 2026-04-30 07:45 | -34.42367 | 150.97824 | 26308 ft | 507 kts | 227° |
| 2026-04-30 07:45 | -34.44693 | 150.94588 | 26790 ft | 512 kts | 227° |
| 2026-04-30 07:45 | -34.47044 | 150.91316 | 27271 ft | 518 kts | 228° |
| 2026-04-30 07:45 | -34.49391 | 150.88044 | 27714 ft | 522 kts | 229° |
| 2026-04-30 07:46 | -34.51788 | 150.84702 | 27752 ft | 526 kts | 229° |
| 2026-04-30 07:46 | -34.54181 | 150.81363 | 27751 ft | 524 kts | 229° |
| 2026-04-30 07:46 | -34.56548 | 150.78014 | 27753 ft | 522 kts | 231° |
| 2026-04-30 07:46 | -34.58781 | 150.74537 | 27758 ft | 523 kts | 233° |
| 2026-04-30 07:47 | -34.60920 | 150.70968 | 27758 ft | 524 kts | 234° |
| 2026-04-30 07:47 | -34.63025 | 150.67354 | 27748 ft | 524 kts | 233° |
| 2026-04-30 07:47 | -34.65129 | 150.63738 | 27751 ft | 523 kts | 233° |
| 2026-04-30 07:47 | -34.67245 | 150.60133 | 27831 ft | 525 kts | 233° |
| 2026-04-30 07:48 | -34.69394 | 150.56512 | 28226 ft | 530 kts | 233° |
| 2026-04-30 07:48 | -34.71558 | 150.52891 | 28764 ft | 530 kts | 235° |
| 2026-04-30 07:48 | -34.73734 | 150.49264 | 29279 ft | 532 kts | 235° |
| 2026-04-30 07:48 | -34.75920 | 150.45619 | 29662 ft | 536 kts | 235° |
| 2026-04-30 07:49 | -34.78128 | 150.41934 | 29993 ft | 540 kts | 235° |
| 2026-04-30 07:49 | -34.80332 | 150.38249 | 30494 ft | 538 kts | 235° |
| 2026-04-30 07:49 | -34.82532 | 150.34565 | 31127 ft | 534 kts | 235° |
| 2026-04-30 07:49 | -34.84678 | 150.30966 | 31703 ft | 532 kts | 235° |
| 2026-04-30 07:50 | -34.86847 | 150.27321 | 32188 ft | 531 kts | 235° |
| 2026-04-30 07:50 | -34.89015 | 150.23675 | 32580 ft | 532 kts | 235° |
| 2026-04-30 07:50 | -34.91192 | 150.20011 | 32885 ft | 535 kts | 235° |
| 2026-04-30 07:50 | -34.93374 | 150.16333 | 33281 ft | 535 kts | 235° |
| 2026-04-30 07:51 | -34.95552 | 150.12661 | 33706 ft | 534 kts | 235° |
| 2026-04-30 07:51 | -34.99894 | 150.05327 | 33751 ft | 532 kts | 235° |
| 2026-04-30 07:52 | -35.04213 | 149.98016 | 33749 ft | 531 kts | 235° |
| 2026-04-30 07:52 | -35.08541 | 149.90681 | 33747 ft | 533 kts | 235° |
| 2026-04-30 07:53 | -35.12883 | 149.83320 | 33747 ft | 534 kts | 235° |
| 2026-04-30 07:53 | -35.17226 | 149.75942 | 33754 ft | 535 kts | 235° |
| 2026-04-30 07:54 | -35.21565 | 149.68553 | 33744 ft | 535 kts | 235° |
| 2026-04-30 07:54 | -35.25894 | 149.61161 | 33748 ft | 534 kts | 236° |
| 2026-04-30 07:55 | -35.30191 | 149.53810 | 33746 ft | 534 kts | 236° |
| 2026-04-30 07:55 | -35.34509 | 149.46409 | 33748 ft | 534 kts | 236° |
| 2026-04-30 07:56 | -35.38824 | 149.38996 | 33749 ft | 534 kts | 236° |
| 2026-04-30 07:56 | -35.43129 | 149.31584 | 33749 ft | 534 kts | 236° |
| 2026-04-30 07:57 | -35.47430 | 149.24164 | 33746 ft | 534 kts | 236° |
| 2026-04-30 07:57 | -35.51727 | 149.16736 | 33744 ft | 534 kts | 236° |
| 2026-04-30 07:58 | -35.56026 | 149.09287 | 33747 ft | 534 kts | 236° |
| 2026-04-30 07:58 | -35.60312 | 149.01847 | 33745 ft | 534 kts | 236° |
| 2026-04-30 07:59 | -35.64596 | 148.94391 | 33750 ft | 534 kts | 236° |
| 2026-04-30 07:59 | -35.68890 | 148.86903 | 33751 ft | 536 kts | 236° |
| 2026-04-30 08:00 | -35.75318 | 148.75662 | 33742 ft | 539 kts | 236° |
| 2026-04-30 08:00 | -35.79625 | 148.68112 | 33750 ft | 539 kts | 236° |
| 2026-04-30 08:01 | -35.83935 | 148.60538 | 33744 ft | 539 kts | 236° |
| 2026-04-30 08:01 | -35.88239 | 148.52954 | 33751 ft | 539 kts | 236° |
| 2026-04-30 08:02 | -35.94668 | 148.41571 | 33748 ft | 539 kts | 236° |
| 2026-04-30 08:03 | -36.03181 | 148.26439 | 33745 ft | 537 kts | 236° |
| 2026-04-30 08:04 | -36.07434 | 148.18860 | 33747 ft | 536 kts | 236° |
| 2026-04-30 08:04 | -36.11673 | 148.11287 | 33751 ft | 534 kts | 236° |
| 2026-04-30 08:05 | -36.15891 | 148.03731 | 33745 ft | 531 kts | 237° |
| 2026-04-30 08:05 | -36.20078 | 147.96213 | 33739 ft | 530 kts | 237° |
| 2026-04-30 08:06 | -36.24255 | 147.88698 | 33752 ft | 529 kts | 237° |
| 2026-04-30 08:06 | -36.28419 | 147.81189 | 33745 ft | 529 kts | 237° |
| 2026-04-30 08:07 | -36.32589 | 147.73653 | 33742 ft | 530 kts | 237° |
| 2026-04-30 08:07 | -36.36764 | 147.66092 | 33751 ft | 532 kts | 237° |
| 2026-04-30 08:08 | -36.40948 | 147.58497 | 33743 ft | 534 kts | 237° |
| 2026-04-30 08:08 | -36.45134 | 147.50883 | 33759 ft | 534 kts | 237° |
| 2026-04-30 08:09 | -36.49317 | 147.43256 | 33751 ft | 534 kts | 237° |
| 2026-04-30 08:09 | -36.53468 | 147.35670 | 33745 ft | 532 kts | 237° |
| 2026-04-30 08:10 | -36.57628 | 147.28052 | 33742 ft | 532 kts | 237° |
| 2026-04-30 08:10 | -36.61779 | 147.20433 | 33751 ft | 532 kts | 237° |
| 2026-04-30 08:11 | -36.65952 | 147.12753 | 33772 ft | 542 kts | 237° |
| 2026-04-30 08:11 | -36.70225 | 147.04872 | 33759 ft | 554 kts | 237° |
| 2026-04-30 08:12 | -36.74545 | 146.96890 | 33759 ft | 553 kts | 237° |
| 2026-04-30 08:12 | -36.78835 | 146.88944 | 33745 ft | 552 kts | 237° |
| 2026-04-30 08:13 | -36.83111 | 146.81005 | 33748 ft | 550 kts | 237° |
| 2026-04-30 08:13 | -36.87354 | 146.73109 | 33741 ft | 540 kts | 237° |
| 2026-04-30 08:14 | -36.91475 | 146.65423 | 33756 ft | 534 kts | 237° |
| 2026-04-30 08:14 | -36.95571 | 146.57764 | 33454 ft | 521 kts | 237° |
| 2026-04-30 08:14 | -36.97573 | 146.54016 | 32810 ft | 518 kts | 237° |
| 2026-04-30 08:15 | -36.99578 | 146.50255 | 31866 ft | 522 kts | 238° |
| 2026-04-30 08:15 | -37.01596 | 146.46463 | 31026 ft | 523 kts | 238° |
| 2026-04-30 08:15 | -37.03609 | 146.42676 | 30189 ft | 524 kts | 236° |
| 2026-04-30 08:15 | -37.05600 | 146.38923 | 29180 ft | 508 kts | 235° |
| 2026-04-30 08:16 | -37.07526 | 146.35290 | 27833 ft | 496 kts | 234° |
| 2026-04-30 08:16 | -37.09411 | 146.31731 | 26471 ft | 484 kts | 233° |
| 2026-04-30 08:16 | -37.11245 | 146.28264 | 25158 ft | 470 kts | 233° |
| 2026-04-30 08:16 | -37.13052 | 146.24851 | 24245 ft | 469 kts | 232° |
| 2026-04-30 08:17 | -37.14845 | 146.21464 | 23647 ft | 463 kts | 232° |
| 2026-04-30 08:17 | -37.16618 | 146.18111 | 23050 ft | 457 kts | 232° |
| 2026-04-30 08:17 | -37.18366 | 146.14801 | 22452 ft | 451 kts | 232° |
| 2026-04-30 08:17 | -37.20086 | 146.11538 | 21865 ft | 445 kts | 232° |
| 2026-04-30 08:18 | -37.21780 | 146.08322 | 21289 ft | 438 kts | 232° |
| 2026-04-30 08:18 | -37.23447 | 146.05154 | 20724 ft | 432 kts | 233° |
| 2026-04-30 08:18 | -37.25051 | 146.02101 | 20154 ft | 413 kts | 233° |
| 2026-04-30 08:18 | -37.26619 | 145.99115 | 19626 ft | 407 kts | 234° |
| 2026-04-30 08:19 | -37.28169 | 145.96162 | 19082 ft | 402 kts | 234° |
| 2026-04-30 08:19 | -37.29699 | 145.93246 | 18547 ft | 397 kts | 235° |
| 2026-04-30 08:19 | -37.31189 | 145.90407 | 18000 ft | 392 kts | 237° |
| 2026-04-30 08:19 | -37.32677 | 145.87567 | 17492 ft | 387 kts | 237° |
| 2026-04-30 08:20 | -37.34150 | 145.84752 | 16953 ft | 383 kts | 237° |
| 2026-04-30 08:20 | -37.35601 | 145.81978 | 16444 ft | 379 kts | 238° |
| 2026-04-30 08:20 | -37.37040 | 145.79220 | 15914 ft | 376 kts | 239° |
| 2026-04-30 08:20 | -37.38467 | 145.76480 | 15433 ft | 373 kts | 238° |
| 2026-04-30 08:21 | -37.39881 | 145.73765 | 14920 ft | 369 kts | 238° |
| 2026-04-30 08:21 | -37.41279 | 145.71079 | 14432 ft | 365 kts | 238° |
| 2026-04-30 08:21 | -37.42665 | 145.68417 | 13932 ft | 362 kts | 238° |
| 2026-04-30 08:21 | -37.44036 | 145.65782 | 13432 ft | 359 kts | 239° |
| 2026-04-30 08:22 | -37.45406 | 145.63160 | 12915 ft | 357 kts | 238° |
| 2026-04-30 08:22 | -37.46854 | 145.60606 | 12423 ft | 359 kts | 236° |
| 2026-04-30 08:22 | -37.48352 | 145.58068 | 11932 ft | 365 kts | 236° |
| 2026-04-30 08:22 | -37.49866 | 145.55507 | 11425 ft | 374 kts | 236° |
| 2026-04-30 08:23 | -37.51420 | 145.52864 | 10879 ft | 376 kts | 236° |
| 2026-04-30 08:23 | -37.52954 | 145.50237 | 10644 ft | 366 kts | 236° |
| 2026-04-30 08:23 | -37.54433 | 145.47693 | 10480 ft | 351 kts | 237° |
| 2026-04-30 08:23 | -37.55826 | 145.45294 | 10258 ft | 334 kts | 237° |
| 2026-04-30 08:24 | -37.57144 | 145.43023 | 9932 ft | 308 kts | 237° |
| 2026-04-30 08:24 | -37.58391 | 145.40873 | 9809 ft | 299 kts | 237° |
| 2026-04-30 08:24 | -37.59598 | 145.38785 | 9662 ft | 290 kts | 237° |
| 2026-04-30 08:24 | -37.60769 | 145.36759 | 9534 ft | 282 kts | 237° |
| 2026-04-30 08:25 | -37.61525 | 145.35448 | 9424 ft | 277 kts | 237° |
| 2026-04-30 08:25 | -37.62664 | 145.33472 | 9014 ft | 280 kts | 237° |
| 2026-04-30 08:25 | -37.63817 | 145.31469 | 8556 ft | 284 kts | 237° |
| 2026-04-30 08:25 | -37.64983 | 145.29444 | 8237 ft | 284 kts | 237° |
| 2026-04-30 08:26 | -37.66135 | 145.27448 | 8012 ft | 280 kts | 237° |
| 2026-04-30 08:26 | -37.67297 | 145.25429 | 7476 ft | 288 kts | 237° |
| 2026-04-30 08:26 | -37.68481 | 145.23373 | 7112 ft | 289 kts | 237° |
| 2026-04-30 08:26 | -37.69665 | 145.21317 | 6766 ft | 289 kts | 236° |
| 2026-04-30 08:27 | -37.70846 | 145.19265 | 6436 ft | 288 kts | 236° |
| 2026-04-30 08:27 | -37.72024 | 145.17217 | 6095 ft | 287 kts | 236° |
| 2026-04-30 08:27 | -37.73188 | 145.15191 | 5766 ft | 279 kts | 236° |
| 2026-04-30 08:27 | -37.74299 | 145.13260 | 5460 ft | 268 kts | 236° |
| 2026-04-30 08:28 | -37.75391 | 145.11356 | 5165 ft | 268 kts | 236° |
| 2026-04-30 08:28 | -37.76492 | 145.09435 | 4873 ft | 272 kts | 236° |
| 2026-04-30 08:28 | -37.77610 | 145.07483 | 4564 ft | 276 kts | 236° |
| 2026-04-30 08:28 | -37.78736 | 145.05517 | 4233 ft | 272 kts | 236° |
| 2026-04-30 08:29 | -37.79831 | 145.03604 | 3928 ft | 268 kts | 236° |
| 2026-04-30 08:29 | -37.80900 | 145.01735 | 3792 ft | 260 kts | 237° |
| 2026-04-30 08:29 | -37.81655 | 144.99764 | 3638 ft | 241 kts | 257° |
| 2026-04-30 08:29 | -37.82016 | 144.97748 | 3547 ft | 230 kts | 261° |
| 2026-04-30 08:30 | -37.82326 | 144.95816 | 3447 ft | 219 kts | 261° |
| 2026-04-30 08:30 | -37.82608 | 144.93974 | 3352 ft | 211 kts | 263° |
| 2026-04-30 08:30 | -37.82828 | 144.92109 | 3233 ft | 215 kts | 264° |
| 2026-04-30 08:30 | -37.83046 | 144.90255 | 3024 ft | 211 kts | 264° |
| 2026-04-30 08:31 | -37.82989 | 144.88482 | 2756 ft | 198 kts | 292° |
| 2026-04-30 08:31 | -37.82199 | 144.87157 | 2490 ft | 184 kts | 323° |
| 2026-04-30 08:31 | -37.81120 | 144.86457 | 2213 ft | 167 kts | 347° |
| 2026-04-30 08:31 | -37.80019 | 144.86263 | 2095 ft | 155 kts | 351° |
| 2026-04-30 08:32 | -37.78988 | 144.86064 | 2034 ft | 146 kts | 351° |
| 2026-04-30 08:32 | -37.77995 | 144.85875 | 1963 ft | 145 kts | 351° |
| 2026-04-30 08:32 | -37.76985 | 144.85693 | 1849 ft | 148 kts | 351° |
| 2026-04-30 08:32 | -37.75959 | 144.85500 | 1620 ft | 150 kts | 351° |
| 2026-04-30 08:33 | -37.74934 | 144.85310 | 1302 ft | 145 kts | 351° |
| 2026-04-30 08:33 | -37.73949 | 144.85118 | 1156 ft | 144 kts | 350° |
| 2026-04-30 08:33 | -37.72953 | 144.84914 | 1034 ft | 145 kts | 350° |
| 2026-04-30 08:33 | -37.71953 | 144.84733 | 934 ft | 146 kts | 352° |
| 2026-04-30 08:34 | -37.70941 | 144.84557 | 812 ft | 147 kts | 351° |
| 2026-04-30 08:34 | -37.69940 | 144.84360 | 654 ft | 148 kts | 351° |
| 2026-04-30 08:34 | -37.68924 | 144.84179 | 469 ft | 147 kts | 351° |
| 2026-04-30 08:34 | -37.67920 | 144.83978 | 363 ft | 141 kts | 349° |
| 2026-04-30 08:35 | -37.67134 | 144.83832 | 384 ft | 60 kts | 352° |
| 2026-04-30 08:35 | -37.66966 | 144.83846 | 387 ft | 15 kts | 21° |
| 2026-04-30 08:35 | -37.66883 | 144.83888 | 388 ft | 0 kts | 24° |
| 2026-04-30 08:35 | -37.66879 | 144.83890 | 388 ft | 1 kts | 24° |
| 2026-04-30 08:36 | -37.66867 | 144.83897 | 388 ft | 3 kts | 24° |
| 2026-04-30 08:36 | -37.66847 | 144.83908 | 388 ft | 4 kts | 24° |
| 2026-04-30 08:36 | -37.66818 | 144.83924 | 388 ft | 8 kts | 24° |
| 2026-04-30 08:36 | -37.66741 | 144.83990 | 387 ft | 15 kts | 57° |
| 2026-04-30 08:37 | -37.66719 | 144.84111 | 383 ft | 13 kts | 95° |
| 2026-04-30 08:37 | -37.66785 | 144.84191 | 380 ft | 15 kts | 165° |
| 2026-04-30 08:37 | -37.66829 | 144.84219 | 379 ft | 11 kts | 134° |
| 2026-04-30 08:37 | -37.66887 | 144.84319 | 375 ft | 16 kts | 119° |
| 2026-04-30 08:38 | -37.66893 | 144.84347 | 378 ft | 0 kts | 89° |